Time,TemperatureF,DewpointF,PressureIn,WindDirection,WindDirectionDegrees,WindSpeedMPH,WindSpeedGustMPH,Humidity,HourlyPrecipIn,Conditions,Clouds,dailyrainin,SoftwareType,DateUTC
2013-07-15 00:00:00,70.8,65.7,30.07,North,-999,0.0,0.0,84,0.00,,,-99.99,WeatherLink 5.7,2013-07-15 05:00:00,
2013-07-15 00:15:00,70.4,66.0,30.08,North,-999,0.0,0.0,86,0.00,,,-99.99,WeatherLink 5.7,2013-07-15 05:15:00,
2013-07-15 00:30:00,70.3,65.9,30.08,North,-999,0.0,0.0,86,0.00,,,-99.99,WeatherLink 5.7,2013-07-15 05:30:00,
2013-07-15 00:45:00,70.1,66.0,30.08,North,-999,0.0,0.0,87,0.00,,,-99.99,WeatherLink 5.7,2013-07-15 05:45:00,
2013-07-15 01:00:00,69.6,65.6,30.08,North,-999,0.0,0.0,87,0.00,,,-99.99,WeatherLink 5.7,2013-07-15 06:00:00,
2013-07-15 01:15:00,69.3,65.6,30.08,North,-999,0.0,0.0,88,0.00,,,-99.99,WeatherLink 5.7,2013-07-15 06:15:00,
2013-07-15 01:30:00,68.9,65.5,30.08,North,-999,0.0,0.0,89,0.00,,,-99.99,WeatherLink 5.7,2013-07-15 06:30:00,
2013-07-15 01:45:00,68.6,65.2,30.08,North,-999,0.0,0.0,89,0.00,,,-99.99,WeatherLink 5.7,2013-07-15 06:45:00,
2013-07-15 02:00:00,68.6,65.5,30.08,North,-999,0.0,0.0,90,0.00,,,-99.99,WeatherLink 5.7,2013-07-15 07:00:00,
2013-07-15 02:15:00,68.3,65.3,30.08,North,-999,0.0,0.0,90,0.00,,,-99.99,WeatherLink 5.7,2013-07-15 07:15:00,
2013-07-15 02:30:00,67.9,64.9,30.08,North,-999,0.0,0.0,90,0.00,,,-99.99,WeatherLink 5.7,2013-07-15 07:30:00,
2013-07-15 02:45:00,67.8,65.1,30.08,North,-999,0.0,0.0,91,0.00,,,-99.99,WeatherLink 5.7,2013-07-15 07:45:00,
2013-07-15 03:00:00,67.6,64.9,30.09,North,-999,0.0,0.0,91,0.00,,,-99.99,WeatherLink 5.7,2013-07-15 08:00:00,
2013-07-15 03:15:00,67.3,64.6,30.09,North,-999,0.0,0.0,91,0.00,,,-99.99,WeatherLink 5.7,2013-07-15 08:15:00,
2013-07-15 03:30:00,67.3,64.6,30.09,North,-999,0.0,0.0,91,0.00,,,-99.99,WeatherLink 5.7,2013-07-15 08:30:00,
2013-07-15 03:45:00,67.1,64.4,30.09,North,-999,0.0,0.0,91,0.00,,,-99.99,WeatherLink 5.7,2013-07-15 08:45:00,
2013-07-15 04:00:00,66.9,64.5,30.09,North,-999,0.0,0.0,92,0.00,,,-99.99,WeatherLink 5.7,2013-07-15 09:00:00,
2013-07-15 04:15:00,66.8,64.4,30.09,North,-999,0.0,0.0,92,0.00,,,-99.99,WeatherLink 5.7,2013-07-15 09:15:00,
2013-07-15 04:30:00,66.6,64.2,30.09,North,-999,0.0,0.0,92,0.00,,,-99.99,WeatherLink 5.7,2013-07-15 09:30:00,
2013-07-15 04:45:00,66.4,64.3,30.09,North,-999,0.0,0.0,93,0.00,,,-99.99,WeatherLink 5.7,2013-07-15 09:45:00,
2013-07-15 05:00:00,66.3,64.2,30.09,North,-999,0.0,0.0,93,0.00,,,-99.99,WeatherLink 5.7,2013-07-15 10:00:00,
2013-07-15 05:15:00,66.1,64.0,30.09,North,-999,0.0,0.0,93,0.00,,,-99.99,WeatherLink 5.7,2013-07-15 10:15:00,
2013-07-15 05:30:00,66.1,64.0,30.09,North,-999,0.0,0.0,93,0.00,,,-99.99,WeatherLink 5.7,2013-07-15 10:30:00,
2013-07-15 05:45:00,66.0,64.2,30.09,North,-999,0.0,0.0,94,0.00,,,-99.99,WeatherLink 5.7,2013-07-15 10:45:00,
2013-07-15 06:00:00,66.1,64.3,30.10,ESE,112,0.0,1.0,94,0.00,,,-99.99,WeatherLink 5.7,2013-07-15 11:00:00,
2013-07-15 06:15:00,66.4,64.6,30.10,North,-999,0.0,0.0,94,0.00,,,-99.99,WeatherLink 5.7,2013-07-15 11:15:00,
2013-07-15 06:30:00,66.8,65.3,30.10,North,-999,0.0,0.0,95,0.00,,,-99.99,WeatherLink 5.7,2013-07-15 11:30:00,
2013-07-15 06:45:00,67.3,65.8,30.11,North,-999,0.0,0.0,95,0.00,,,-99.99,WeatherLink 5.7,2013-07-15 11:45:00,
2013-07-15 07:00:00,67.9,66.4,30.11,North,-999,0.0,0.0,95,0.00,,,-99.99,WeatherLink 5.7,2013-07-15 12:00:00,
2013-07-15 07:15:00,68.8,67.3,30.11,North,-999,0.0,0.0,95,0.00,,,-99.99,WeatherLink 5.7,2013-07-15 12:15:00,
2013-07-15 07:30:00,70.1,68.9,30.11,SSE,157,0.0,2.0,96,0.00,,,-99.99,WeatherLink 5.7,2013-07-15 12:30:00,
2013-07-15 07:45:00,71.1,69.6,30.11,SSE,157,0.0,1.0,95,0.00,,,-99.99,WeatherLink 5.7,2013-07-15 12:45:00,
2013-07-15 08:00:00,72.7,70.9,30.11,SE,135,0.0,1.0,94,0.00,,,-99.99,WeatherLink 5.7,2013-07-15 13:00:00,
2013-07-15 08:15:00,74.7,71.6,30.12,ESE,112,0.0,4.0,90,0.00,,,-99.99,WeatherLink 5.7,2013-07-15 13:15:00,
2013-07-15 08:30:00,77.0,71.4,30.12,ESE,112,0.0,3.0,83,0.00,,,-99.99,WeatherLink 5.7,2013-07-15 13:30:00,
2013-07-15 08:45:00,79.0,71.9,30.12,SSE,157,0.0,2.0,79,0.00,,,-99.99,WeatherLink 5.7,2013-07-15 13:45:00,
2013-07-15 09:00:00,80.5,71.8,30.12,East,90,0.0,1.0,75,0.00,,,-99.99,WeatherLink 5.7,2013-07-15 14:00:00,
2013-07-15 09:15:00,82.0,72.1,30.12,SE,135,0.0,1.0,72,0.00,,,-99.99,WeatherLink 5.7,2013-07-15 14:15:00,
2013-07-15 09:30:00,83.8,73.8,30.12,East,90,0.0,3.0,72,0.00,,,-99.99,WeatherLink 5.7,2013-07-15 14:30:00,
2013-07-15 09:45:00,84.1,73.3,30.12,SE,135,0.0,4.0,70,0.00,,,-99.99,WeatherLink 5.7,2013-07-15 14:45:00,
2013-07-15 10:00:00,85.3,72.6,30.12,East,90,0.0,2.0,66,0.00,,,-99.99,WeatherLink 5.7,2013-07-15 15:00:00,
2013-07-15 10:15:00,85.7,73.5,30.12,ESE,112,0.0,3.0,67,0.00,,,-99.99,WeatherLink 5.7,2013-07-15 15:15:00,
2013-07-15 10:30:00,85.9,73.2,30.12,ESE,112,0.0,3.0,66,0.00,,,-99.99,WeatherLink 5.7,2013-07-15 15:30:00,
2013-07-15 10:45:00,86.7,73.1,30.11,ESE,112,0.0,4.0,64,0.00,,,-99.99,WeatherLink 5.7,2013-07-15 15:45:00,
2013-07-15 11:00:00,87.0,72.9,30.11,ESE,112,0.0,4.0,63,0.00,,,-99.99,WeatherLink 5.7,2013-07-15 16:00:00,
2013-07-15 11:15:00,87.0,72.4,30.11,ESE,112,0.0,4.0,62,0.00,,,-99.99,WeatherLink 5.7,2013-07-15 16:15:00,
2013-07-15 11:30:00,87.4,72.3,30.11,ESE,112,0.0,4.0,61,0.00,,,-99.99,WeatherLink 5.7,2013-07-15 16:30:00,
2013-07-15 11:45:00,87.4,71.8,30.11,East,90,0.0,4.0,60,0.00,,,-99.99,WeatherLink 5.7,2013-07-15 16:45:00,
2013-07-15 12:00:00,87.8,71.2,30.10,ESE,112,1.0,5.0,58,0.00,,,-99.99,WeatherLink 5.7,2013-07-15 17:00:00,
2013-07-15 12:15:00,87.0,71.9,30.10,SE,135,0.0,1.0,61,0.00,,,-99.99,WeatherLink 5.7,2013-07-15 17:15:00,
2013-07-15 12:30:00,87.0,71.9,30.10,ESE,112,0.0,5.0,61,0.00,,,-99.99,WeatherLink 5.7,2013-07-15 17:30:00,
2013-07-15 12:45:00,87.2,71.6,30.10,ESE,112,0.0,4.0,60,0.00,,,-99.99,WeatherLink 5.7,2013-07-15 17:45:00,
2013-07-15 13:00:00,87.2,71.6,30.10,ESE,112,0.0,1.0,60,0.00,,,-99.99,WeatherLink 5.7,2013-07-15 18:00:00,
2013-07-15 13:15:00,88.0,72.9,30.10,ESE,112,1.0,5.0,61,0.00,,,-99.99,WeatherLink 5.7,2013-07-15 18:15:00,
2013-07-15 13:30:00,87.8,71.7,30.09,ESE,112,0.0,3.0,59,0.00,,,-99.99,WeatherLink 5.7,2013-07-15 18:30:00,
2013-07-15 13:45:00,88.8,71.6,30.09,East,90,0.0,3.0,57,0.00,,,-99.99,WeatherLink 5.7,2013-07-15 18:45:00,
2013-07-15 14:00:00,89.0,72.3,30.09,SE,135,0.0,5.0,58,0.00,,,-99.99,WeatherLink 5.7,2013-07-15 19:00:00,
2013-07-15 14:15:00,89.0,71.8,30.09,ESE,112,0.0,4.0,57,0.00,,,-99.99,WeatherLink 5.7,2013-07-15 19:15:00,
2013-07-15 14:30:00,89.7,73.0,30.08,ESE,112,0.0,3.0,58,0.00,,,-99.99,WeatherLink 5.7,2013-07-15 19:30:00,
2013-07-15 14:45:00,89.0,72.3,30.08,SE,135,0.0,3.0,58,0.00,,,-99.99,WeatherLink 5.7,2013-07-15 19:45:00,
2013-07-15 15:00:00,88.0,72.4,30.07,SE,135,0.0,3.0,60,0.00,,,-99.99,WeatherLink 5.7,2013-07-15 20:00:00,
2013-07-15 15:15:00,88.4,71.2,30.07,ESE,112,0.0,2.0,57,0.00,,,-99.99,WeatherLink 5.7,2013-07-15 20:15:00,
2013-07-15 15:30:00,89.3,71.0,30.07,ESE,112,0.0,2.0,55,0.00,,,-99.99,WeatherLink 5.7,2013-07-15 20:30:00,
2013-07-15 15:45:00,89.5,72.3,30.07,West,270,0.0,1.0,57,0.00,,,-99.99,WeatherLink 5.7,2013-07-15 20:45:00,
2013-07-15 16:00:00,90.1,72.8,30.07,East,90,0.0,7.0,57,0.00,,,-99.99,WeatherLink 5.7,2013-07-15 21:00:00,
2013-07-15 16:15:00,89.9,72.6,30.06,SW,225,0.0,3.0,57,0.00,,,-99.99,WeatherLink 5.7,2013-07-15 21:15:00,
2013-07-15 16:30:00,89.0,73.3,30.06,West,270,0.0,3.0,60,0.00,,,-99.99,WeatherLink 5.7,2013-07-15 21:30:00,
2013-07-15 16:45:00,88.8,72.6,30.06,North,-999,0.0,0.0,59,0.00,,,-99.99,WeatherLink 5.7,2013-07-15 21:45:00,
2013-07-15 17:00:00,88.6,73.4,30.06,ESE,112,0.0,5.0,61,0.00,,,-99.99,WeatherLink 5.7,2013-07-15 22:00:00,
2013-07-15 17:15:00,88.0,73.3,30.06,ESE,112,0.0,4.0,62,0.00,,,-99.99,WeatherLink 5.7,2013-07-15 22:15:00,
2013-07-15 17:30:00,87.8,74.6,30.05,SSE,157,0.0,4.0,65,0.00,,,-99.99,WeatherLink 5.7,2013-07-15 22:30:00,
2013-07-15 17:45:00,87.2,75.3,30.05,North,-999,0.0,0.0,68,0.00,,,-99.99,WeatherLink 5.7,2013-07-15 22:45:00,
2013-07-15 18:08:00,86.3,73.1,30.05,ESE,112,0.0,2.0,65,0.00,,,-99.99,WeatherLink 5.7,2013-07-15 23:08:00,
2013-07-15 18:19:00,86.5,72.9,30.05,North,-999,0.0,0.0,64,0.00,,,-99.99,WeatherLink 5.7,2013-07-15 23:19:00,
2013-07-15 18:33:00,86.1,73.0,30.05,ESE,112,0.0,2.0,65,0.00,,,-99.99,WeatherLink 5.7,2013-07-15 23:33:00,
2013-07-15 18:50:00,85.3,73.1,30.05,ESE,112,0.0,3.0,67,0.00,,,-99.99,WeatherLink 5.7,2013-07-15 23:50:00,
2013-07-15 19:03:00,85.1,74.6,30.05,North,-999,0.0,0.0,71,0.00,,,-99.99,WeatherLink 5.7,2013-07-16 00:03:00,
2013-07-15 19:18:00,84.1,74.5,30.05,North,-999,0.0,0.0,73,0.00,,,-99.99,WeatherLink 5.7,2013-07-16 00:18:00,
2013-07-15 19:30:00,83.6,74.8,30.05,North,-999,0.0,0.0,75,0.00,,,-99.99,WeatherLink 5.7,2013-07-16 00:30:00,
2013-07-15 19:48:00,82.6,74.7,30.05,North,-999,0.0,0.0,77,0.00,,,-99.99,WeatherLink 5.7,2013-07-16 00:48:00,
2013-07-15 20:03:00,81.8,74.3,30.06,North,-999,0.0,0.0,78,0.00,,,-99.99,WeatherLink 5.7,2013-07-16 01:03:00,
2013-07-15 20:18:00,81.1,74.0,30.05,North,-999,0.0,0.0,79,0.00,,,-99.99,WeatherLink 5.7,2013-07-16 01:18:00,
2013-07-15 20:33:00,80.7,74.0,30.05,North,-999,0.0,0.0,80,0.00,,,-99.99,WeatherLink 5.7,2013-07-16 01:33:00,
2013-07-15 20:48:00,80.1,73.7,30.06,North,-999,0.0,0.0,81,0.00,,,-99.99,WeatherLink 5.7,2013-07-16 01:48:00,
2013-07-15 21:03:00,79.6,73.6,30.06,North,-999,0.0,0.0,82,0.00,,,-99.99,WeatherLink 5.7,2013-07-16 02:03:00,
2013-07-15 21:18:00,79.0,73.7,30.07,North,-999,0.0,0.0,84,0.00,,,-99.99,WeatherLink 5.7,2013-07-16 02:18:00,
2013-07-15 21:33:00,78.5,73.6,30.07,North,-999,0.0,0.0,85,0.00,,,-99.99,WeatherLink 5.7,2013-07-16 02:33:00,
2013-07-15 21:48:00,77.9,73.4,30.08,North,-999,0.0,0.0,86,0.00,,,-99.99,WeatherLink 5.7,2013-07-16 02:48:00,
2013-07-15 22:03:00,77.2,73.0,30.08,North,-999,0.0,0.0,87,0.00,,,-99.99,WeatherLink 5.7,2013-07-16 03:03:00,
2013-07-15 22:18:00,76.5,72.3,30.08,North,-999,0.0,0.0,87,0.00,,,-99.99,WeatherLink 5.7,2013-07-16 03:18:00,
2013-07-15 22:30:00,76.3,72.5,30.08,North,-999,0.0,0.0,88,0.00,,,-99.99,WeatherLink 5.7,2013-07-16 03:30:00,
2013-07-15 22:48:00,76.3,72.8,30.09,North,-999,0.0,0.0,89,0.00,,,-99.99,WeatherLink 5.7,2013-07-16 03:48:00,
2013-07-15 23:04:00,76.0,72.9,30.09,North,-999,0.0,0.0,90,0.00,,,-99.99,WeatherLink 5.7,2013-07-16 04:04:00,
2013-07-15 23:18:00,75.4,72.3,30.10,North,-999,0.0,0.0,90,0.00,,,-99.99,WeatherLink 5.7,2013-07-16 04:18:00,
2013-07-15 23:33:00,75.1,72.0,30.10,North,-999,0.0,0.0,90,0.00,,,-99.99,WeatherLink 5.7,2013-07-16 04:33:00,
2013-07-15 23:48:00,74.7,71.9,30.10,North,-999,0.0,0.0,91,0.00,,,-99.99,WeatherLink 5.7,2013-07-16 04:48:00,